createdAt,value
2019-03-31T00:04:20.858Z,12.87
2019-03-31T00:06:50.686Z,13.13
2019-03-31T00:09:20.460Z,13.83
2019-03-31T00:11:50.289Z,19.67
2019-03-31T00:14:20.091Z,13.20
2019-03-31T00:16:52.422Z,12.73
2019-03-31T00:19:21.412Z,14.80
2019-03-31T00:21:51.568Z,12.50
2019-03-31T00:24:21.327Z,12.60
2019-03-31T00:26:51.265Z,13.30
2019-03-31T00:29:21.042Z,13.47
2019-03-31T00:31:51.411Z,12.17
2019-03-31T00:34:21.162Z,12.23
2019-03-31T00:36:51.022Z,11.10
2019-03-31T00:39:20.859Z,11.43
2019-03-31T00:41:50.803Z,11.53
2019-03-31T00:44:20.936Z,11.63
2019-03-31T00:46:50.893Z,10.77
2019-03-31T00:49:20.803Z,10.70
2019-03-31T00:51:50.871Z,11.03
2019-03-31T00:54:21.168Z,10.30
2019-03-31T00:56:51.030Z,9.80
2019-03-31T00:59:20.892Z,10.50
2019-03-31T01:01:53.889Z,9.70
2019-03-31T01:05:03.820Z,9.80
2019-03-31T01:07:33.822Z,10.83
2019-03-31T01:10:24.035Z,9.70
2019-03-31T01:12:54.007Z,10.00
2019-03-31T01:16:02.865Z,9.80
2019-03-31T01:18:32.719Z,9.93
2019-03-31T01:21:02.608Z,8.77
2019-03-31T01:23:32.462Z,9.70
2019-03-31T01:26:02.231Z,9.33
2019-03-31T01:28:32.079Z,9.93
2019-03-31T01:31:02.359Z,11.30
2019-03-31T01:33:32.191Z,9.93
2019-03-31T01:36:01.903Z,9.90
2019-03-31T01:38:31.835Z,10.33
2019-03-31T01:41:02.018Z,9.80
2019-03-31T01:43:31.850Z,9.10
2019-03-31T01:46:01.944Z,8.93
2019-03-31T01:48:32.059Z,8.80
2019-03-31T01:51:01.808Z,9.87
2019-03-31T01:53:31.661Z,9.00
2019-03-31T01:56:01.427Z,8.70
2019-03-31T01:58:31.253Z,9.33
2019-03-31T02:03:52.416Z,9.37
2019-03-31T02:06:22.153Z,8.43
2019-03-31T02:08:51.988Z,9.37
2019-03-31T02:11:21.762Z,8.27
2019-03-31T02:13:51.613Z,9.27
2019-03-31T02:16:21.355Z,8.33
2019-03-31T02:18:51.096Z,9.80
2019-03-31T02:21:21.234Z,8.80
2019-03-31T02:23:50.984Z,9.50
2019-03-31T02:26:21.738Z,8.63
2019-03-31T02:28:51.494Z,9.07
2019-03-31T02:31:21.309Z,8.77
2019-03-31T02:33:51.046Z,8.83
2019-03-31T02:36:20.909Z,8.33
2019-03-31T02:38:50.652Z,7.87
2019-03-31T02:41:20.538Z,8.67
2019-03-31T02:43:50.280Z,8.83
2019-03-31T02:46:20.253Z,8.80
2019-03-31T02:48:49.999Z,7.70
2019-03-31T02:51:19.979Z,7.90
2019-03-31T02:53:49.723Z,8.27
2019-03-31T02:59:54.051Z,8.10
2019-03-31T03:06:12.177Z,8.00
2019-03-31T03:09:21.033Z,8.70
2019-03-31T03:12:29.957Z,9.07
2019-03-31T03:15:38.891Z,7.10
2019-03-31T03:18:09.012Z,8.17
2019-03-31T03:20:38.845Z,7.37
2019-03-31T03:23:08.605Z,7.67
2019-03-31T03:25:54.873Z,8.13
2019-03-31T03:28:10.769Z,7.37
2019-03-31T03:30:40.977Z,7.63
2019-03-31T03:33:31.598Z,7.23
2019-03-31T03:36:02.070Z,7.57
2019-03-31T03:38:31.808Z,6.80
2019-03-31T03:41:04.443Z,7.07
2019-03-31T03:43:34.196Z,7.47
2019-03-31T03:46:04.046Z,7.37
2019-03-31T03:48:33.838Z,7.27
2019-03-31T03:51:03.842Z,6.73
2019-03-31T03:53:33.870Z,7.37
2019-03-31T03:56:03.764Z,7.63
2019-03-31T03:58:33.510Z,7.77
2019-03-31T04:03:40.120Z,7.50
2019-03-31T04:06:10.033Z,6.67
2019-03-31T04:08:40.047Z,7.73
2019-03-31T04:11:29.064Z,7.40
2019-03-31T04:14:38.002Z,7.67
2019-03-31T04:17:07.826Z,8.07
2019-03-31T04:19:38.121Z,7.67
2019-03-31T04:22:07.972Z,7.53
2019-03-31T04:24:37.717Z,7.23
2019-03-31T04:27:07.532Z,7.83
2019-03-31T04:29:37.252Z,6.33
2019-03-31T04:32:07.073Z,7.13
2019-03-31T04:34:36.816Z,8.40
2019-03-31T04:37:06.982Z,7.13
2019-03-31T04:39:36.715Z,6.87
2019-03-31T04:42:06.627Z,7.20
2019-03-31T04:44:36.384Z,7.57
2019-03-31T04:47:06.218Z,7.20
2019-03-31T04:49:35.965Z,7.10
2019-03-31T04:52:05.803Z,6.67
2019-03-31T04:54:35.572Z,6.87
2019-03-31T04:57:05.528Z,6.80
2019-03-31T04:59:35.299Z,7.83
2019-03-31T05:02:05.119Z,7.40
2019-03-31T05:04:34.847Z,7.27
2019-03-31T05:07:04.712Z,7.60
2019-03-31T05:09:34.478Z,7.90
2019-03-31T05:12:04.659Z,6.80
2019-03-31T05:14:34.411Z,7.33
2019-03-31T05:17:04.234Z,7.17
2019-03-31T05:19:33.972Z,7.43
2019-03-31T05:22:03.790Z,7.10
2019-03-31T05:24:33.534Z,6.13
2019-03-31T05:27:03.629Z,6.13
2019-03-31T05:29:33.751Z,6.60
2019-03-31T05:32:03.842Z,6.83
2019-03-31T05:34:33.597Z,6.30
2019-03-31T05:37:03.421Z,6.30
2019-03-31T05:39:33.191Z,6.30
2019-03-31T05:42:03.107Z,6.10
2019-03-31T05:44:32.848Z,6.97
2019-03-31T05:47:03.152Z,6.67
2019-03-31T05:49:33.282Z,6.87
2019-03-31T05:52:03.102Z,6.33
2019-03-31T05:54:33.115Z,6.47
2019-03-31T05:57:02.923Z,6.93
2019-03-31T05:59:32.677Z,6.70
2019-03-31T06:02:02.493Z,6.33
2019-03-31T06:04:33.442Z,6.90
2019-03-31T06:07:03.784Z,7.20
2019-03-31T06:09:33.536Z,6.90
2019-03-31T06:12:03.334Z,6.47
2019-03-31T06:14:33.438Z,7.47
2019-03-31T06:17:03.565Z,7.07
2019-03-31T06:19:33.314Z,6.40
2019-03-31T06:22:03.145Z,6.23
2019-03-31T06:24:32.893Z,6.83
2019-03-31T06:27:41.809Z,6.90
2019-03-31T06:30:11.941Z,6.83
2019-03-31T06:32:41.752Z,7.37
2019-03-31T06:35:11.899Z,6.90
2019-03-31T06:37:41.709Z,6.97
2019-03-31T06:40:11.451Z,7.07
2019-03-31T06:42:41.342Z,7.10
2019-03-31T06:45:50.186Z,7.33
2019-03-31T06:48:20.001Z,7.23
2019-03-31T06:50:49.746Z,7.77
2019-03-31T06:53:19.568Z,7.17
2019-03-31T06:55:49.306Z,6.77
2019-03-31T06:58:19.122Z,7.10
2019-03-31T07:00:48.893Z,7.40
2019-03-31T07:03:18.691Z,6.70
2019-03-31T07:05:48.453Z,7.10
2019-03-31T07:08:18.231Z,6.70
2019-03-31T07:10:48.052Z,6.70
2019-03-31T07:13:18.172Z,7.03
2019-03-31T07:15:48.393Z,7.23
2019-03-31T07:18:19.513Z,7.13
2019-03-31T07:21:09.689Z,7.27
2019-03-31T07:23:39.433Z,7.13
2019-03-31T07:26:09.321Z,7.33
2019-03-31T07:28:39.183Z,8.03
2019-03-31T07:31:09.024Z,7.83
2019-03-31T07:33:38.979Z,7.40
2019-03-31T07:36:08.813Z,8.10
2019-03-31T07:38:39.593Z,8.37
2019-03-31T07:41:13.145Z,7.77
2019-03-31T07:43:41.709Z,8.07
2019-03-31T07:46:11.532Z,7.60
2019-03-31T07:48:41.283Z,8.00
2019-03-31T07:51:11.111Z,8.03
2019-03-31T07:53:41.190Z,8.00
2019-03-31T07:56:11.151Z,7.93
2019-03-31T07:58:40.921Z,8.07
2019-03-31T08:01:10.706Z,7.57
2019-03-31T08:03:40.458Z,9.50
2019-03-31T08:06:10.311Z,9.17
2019-03-31T08:08:40.071Z,9.57
2019-03-31T08:11:09.939Z,9.03
2019-03-31T08:13:39.692Z,9.83
2019-03-31T08:16:09.508Z,10.13
2019-03-31T08:18:39.331Z,10.43
2019-03-31T08:21:09.217Z,10.17
2019-03-31T08:23:38.994Z,10.03
2019-03-31T08:26:08.818Z,10.97
2019-03-31T08:28:38.642Z,10.27
2019-03-31T08:31:08.402Z,12.20
2019-03-31T08:33:38.222Z,11.20
2019-03-31T08:36:08.041Z,12.13
2019-03-31T08:41:26.962Z,12.50
2019-03-31T08:43:56.821Z,13.63
2019-03-31T08:49:17.503Z,11.60
2019-03-31T08:52:06.053Z,12.80
2019-03-31T08:54:35.802Z,12.37
2019-03-31T08:57:05.730Z,12.40
2019-03-31T08:59:35.580Z,12.90
2019-03-31T09:02:24.751Z,11.50
2019-03-31T09:04:54.549Z,13.33
2019-03-31T09:07:43.380Z,12.87
2019-03-31T09:10:52.323Z,13.60
2019-03-31T09:13:22.264Z,15.33
2019-03-31T09:15:52.052Z,19.97
2019-03-31T09:18:21.898Z,33.20
2019-03-31T09:20:51.998Z,40.80
2019-03-31T09:23:28.828Z,23.17
2019-03-31T09:25:58.581Z,21.30
2019-03-31T09:28:28.429Z,18.53
2019-03-31T09:30:58.518Z,16.23
2019-03-31T09:33:28.763Z,16.30
2019-03-31T09:35:58.860Z,14.67
2019-03-31T09:38:28.688Z,14.77
2019-03-31T09:40:58.448Z,13.93
2019-03-31T09:43:28.305Z,13.30
2019-03-31T09:45:58.521Z,14.50
2019-03-31T09:48:28.277Z,13.60
2019-03-31T09:50:58.457Z,13.47
2019-03-31T09:53:28.238Z,12.67
2019-03-31T09:55:58.090Z,13.60
2019-03-31T09:58:27.852Z,13.43
2019-03-31T10:01:37.059Z,13.83
2019-03-31T10:04:07.150Z,14.10
2019-03-31T10:06:37.355Z,14.33
2019-03-31T10:09:47.517Z,11.67
2019-03-31T10:12:17.347Z,9.90
2019-03-31T10:14:47.357Z,10.50
2019-03-31T10:17:17.181Z,10.93
2019-03-31T10:19:47.274Z,10.07
2019-03-31T10:22:17.499Z,9.80
2019-03-31T10:24:47.256Z,11.30
2019-03-31T10:27:17.101Z,10.67
2019-03-31T10:29:47.137Z,11.00
2019-03-31T10:32:16.888Z,10.30
2019-03-31T10:34:46.705Z,8.97
2019-03-31T10:37:16.453Z,9.30
2019-03-31T10:39:46.331Z,10.83
2019-03-31T10:42:16.286Z,10.10
2019-03-31T10:47:21.721Z,10.57
2019-03-31T10:49:51.575Z,9.73
2019-03-31T10:52:29.367Z,8.70
2019-03-31T10:55:38.848Z,9.17
2019-03-31T10:58:08.785Z,9.67
2019-03-31T11:00:58.882Z,9.30
2019-03-31T11:03:46.375Z,9.73
2019-03-31T11:06:39.872Z,8.53
2019-03-31T11:09:28.787Z,7.97
2019-03-31T11:11:58.981Z,8.33
2019-03-31T11:14:48.188Z,8.30
2019-03-31T11:17:08.080Z,8.83
2019-03-31T11:19:37.930Z,8.67
2019-03-31T11:25:20.306Z,7.70
2019-03-31T11:27:32.471Z,8.03
2019-03-31T11:30:02.335Z,7.57
2019-03-31T11:32:32.227Z,8.10
2019-03-31T11:35:02.417Z,7.37
2019-03-31T11:37:32.746Z,8.87
2019-03-31T11:43:12.151Z,7.80
2019-03-31T11:45:41.939Z,8.20
2019-03-31T11:48:11.693Z,7.33
2019-03-31T11:50:41.548Z,7.90
2019-03-31T11:53:11.326Z,7.23
2019-03-31T11:55:41.165Z,8.20
2019-03-31T11:58:13.125Z,7.60
2019-03-31T12:00:48.889Z,7.50
2019-03-31T12:03:18.729Z,8.27
2019-03-31T12:05:48.529Z,8.13
2019-03-31T12:08:18.435Z,7.47
2019-03-31T12:13:44.354Z,7.90
2019-03-31T12:16:33.266Z,7.53
2019-03-31T12:19:03.507Z,7.80
2019-03-31T12:21:33.791Z,7.33
2019-03-31T12:24:03.579Z,7.87
2019-03-31T12:26:33.348Z,7.57
2019-03-31T12:29:03.150Z,8.10
2019-03-31T12:32:12.216Z,7.53
2019-03-31T12:34:41.953Z,7.33
2019-03-31T12:37:11.829Z,7.40
2019-03-31T12:39:42.098Z,7.03
2019-03-31T12:45:01.681Z,7.33
2019-03-31T12:47:33.864Z,6.83
2019-03-31T12:50:03.759Z,6.43
2019-03-31T12:52:46.144Z,7.43
2019-03-31T12:55:06.063Z,7.80
2019-03-31T12:57:37.877Z,6.90
2019-03-31T13:03:17.093Z,8.20
2019-03-31T13:05:46.887Z,7.80
2019-03-31T13:08:16.713Z,7.80
2019-03-31T13:10:49.590Z,8.50
2019-03-31T13:13:19.776Z,7.37
2019-03-31T13:15:49.531Z,7.77
2019-03-31T13:18:19.485Z,9.40
2019-03-31T13:20:49.877Z,9.10
2019-03-31T13:23:19.780Z,8.47
2019-03-31T13:25:49.860Z,7.53
2019-03-31T13:28:19.709Z,8.73
2019-03-31T13:30:49.754Z,8.67
2019-03-31T13:33:21.384Z,8.33
2019-03-31T13:35:53.184Z,7.50
2019-03-31T13:38:23.219Z,7.57
2019-03-31T13:40:53.052Z,7.77
2019-03-31T13:43:22.986Z,8.57
2019-03-31T13:45:53.497Z,7.87
2019-03-31T13:48:25.592Z,8.27
2019-03-31T13:50:55.334Z,8.73
2019-03-31T13:54:06.098Z,8.13
2019-03-31T13:56:36.372Z,9.30
2019-03-31T13:59:09.110Z,8.80
2019-03-31T14:01:39.040Z,8.83
2019-03-31T14:04:08.992Z,8.60
2019-03-31T14:06:39.173Z,8.60
2019-03-31T14:09:10.054Z,9.03
2019-03-31T14:14:31.097Z,9.20
2019-03-31T14:17:00.971Z,8.97
2019-03-31T14:19:33.373Z,9.43
2019-03-31T14:22:22.819Z,8.53
2019-03-31T14:25:04.651Z,9.40
2019-03-31T14:30:35.040Z,9.03
2019-03-31T14:33:04.785Z,9.80
2019-03-31T14:35:37.911Z,10.07
2019-03-31T14:38:06.199Z,10.03
2019-03-31T14:40:36.096Z,10.27
2019-03-31T14:43:08.310Z,10.93
2019-03-31T14:45:58.649Z,10.07
2019-03-31T14:48:28.810Z,9.50
2019-03-31T14:50:58.680Z,9.67
2019-03-31T14:53:28.857Z,8.93
2019-03-31T14:56:17.680Z,8.97
2019-03-31T14:58:47.447Z,10.43
2019-03-31T15:01:21.058Z,11.37
2019-03-31T15:03:49.104Z,10.30
2019-03-31T15:09:14.432Z,10.98
2019-03-31T15:12:03.012Z,10.58
2019-03-31T15:14:32.840Z,10.60
2019-03-31T15:17:24.063Z,10.70
2019-03-31T15:19:53.951Z,9.73
2019-03-31T15:22:23.950Z,10.00
2019-03-31T15:24:54.144Z,10.38
2019-03-31T15:27:24.219Z,10.25
2019-03-31T15:29:53.995Z,10.03
2019-03-31T15:32:24.288Z,11.28
2019-03-31T15:34:54.421Z,10.10
2019-03-31T15:37:24.443Z,11.25
2019-03-31T15:39:54.251Z,12.55
2019-03-31T15:42:24.156Z,12.78
2019-03-31T15:45:33.421Z,11.50
2019-03-31T15:48:03.257Z,11.73
2019-03-31T15:50:51.926Z,12.25
2019-03-31T15:53:21.883Z,12.53
2019-03-31T15:55:51.741Z,13.32
2019-03-31T15:58:21.581Z,12.78
2019-03-31T16:00:51.717Z,11.15
2019-03-31T16:03:35.546Z,11.50
2019-03-31T16:05:53.098Z,10.75
2019-03-31T16:08:22.393Z,12.37
2019-03-31T16:10:51.765Z,12.05
2019-03-31T16:13:20.972Z,11.73
2019-03-31T16:18:27.552Z,11.22
2019-03-31T16:20:56.895Z,11.85
2019-03-31T16:23:26.140Z,11.38
2019-03-31T16:25:57.433Z,11.53
2019-03-31T16:28:26.680Z,12.25
2019-03-31T16:30:56.356Z,12.47
2019-03-31T16:33:25.570Z,12.28
2019-03-31T16:36:34.651Z,12.60
2019-03-31T16:42:13.132Z,11.40
2019-03-31T16:44:42.347Z,11.90
2019-03-31T16:47:25.252Z,11.53
2019-03-31T16:49:46.231Z,12.23
2019-03-31T16:52:43.758Z,11.18
2019-03-31T16:55:27.637Z,11.28
2019-03-31T16:57:45.130Z,10.43
2019-03-31T17:01:16.340Z,11.55
2019-03-31T17:03:27.710Z,9.95
2019-03-31T17:06:38.888Z,10.08
2019-03-31T17:12:22.997Z,10.03
2019-03-31T17:14:52.261Z,10.67
2019-03-31T17:17:21.592Z,16.10
2019-03-31T17:19:51.001Z,15.50
2019-03-31T17:22:20.879Z,12.83
2019-03-31T17:25:09.825Z,12.00
2019-03-31T17:27:55.863Z,10.10
2019-03-31T17:30:25.451Z,9.30
2019-03-31T17:32:54.740Z,9.17
2019-03-31T17:35:24.037Z,10.30
2019-03-31T17:37:53.334Z,10.03
2019-03-31T17:40:22.655Z,10.10
2019-03-31T17:42:52.404Z,10.03
2019-03-31T17:48:11.703Z,9.60
2019-03-31T17:51:20.315Z,9.80
2019-03-31T17:53:49.742Z,9.97
2019-03-31T17:56:19.135Z,9.17
2019-03-31T17:58:48.637Z,10.00
2019-03-31T18:01:18.239Z,10.20
2019-03-31T18:03:47.542Z,9.73
2019-03-31T18:06:16.745Z,9.73
2019-03-31T18:08:46.741Z,9.97
2019-03-31T18:11:16.182Z,10.33
2019-03-31T18:13:45.541Z,11.17
2019-03-31T18:19:05.389Z,10.57
2019-03-31T18:21:34.609Z,10.13
2019-03-31T18:24:23.476Z,10.17
2019-03-31T18:26:52.700Z,11.00
2019-03-31T18:29:22.007Z,11.50
2019-03-31T18:31:51.467Z,9.87
2019-03-31T18:34:20.935Z,10.70
2019-03-31T18:36:50.260Z,10.10
2019-03-31T18:39:19.568Z,10.40
2019-03-31T18:41:48.818Z,10.70
2019-03-31T18:44:18.188Z,10.10
2019-03-31T18:46:47.387Z,9.77
2019-03-31T18:49:16.675Z,11.70
2019-03-31T18:51:45.920Z,10.73
2019-03-31T18:54:34.160Z,10.57
2019-03-31T18:57:09.498Z,9.73
2019-03-31T18:59:58.624Z,10.87
2019-03-31T19:02:47.252Z,10.87
2019-03-31T19:05:35.716Z,10.80
2019-03-31T19:08:13.899Z,10.50
2019-03-31T19:11:02.122Z,10.93
2019-03-31T19:13:55.612Z,10.43
2019-03-31T19:16:40.321Z,10.60
2019-03-31T19:19:28.593Z,10.07
2019-03-31T19:22:17.379Z,10.43
2019-03-31T19:25:06.087Z,11.23
2019-03-31T19:27:54.780Z,10.27
2019-03-31T19:30:43.268Z,10.93
2019-03-31T19:33:24.292Z,10.93
2019-03-31T19:36:12.949Z,11.07
2019-03-31T19:39:01.163Z,10.73
2019-03-31T19:44:47.400Z,11.67
2019-03-31T19:47:35.555Z,11.07
2019-03-31T19:50:44.219Z,11.83
2019-03-31T19:53:32.362Z,10.87
2019-03-31T19:56:20.575Z,11.03
2019-03-31T19:59:08.820Z,10.90
2019-03-31T20:01:56.958Z,11.10
2019-03-31T20:04:45.694Z,11.43
2019-03-31T20:07:34.122Z,11.93
2019-03-31T20:10:22.739Z,11.07
2019-03-31T20:13:10.958Z,11.00
2019-03-31T20:16:02.458Z,11.30
2019-03-31T20:18:49.310Z,11.27
2019-03-31T20:21:37.917Z,10.37
2019-03-31T20:24:26.175Z,11.27
2019-03-31T20:27:14.907Z,12.03
2019-03-31T20:30:03.141Z,10.90
2019-03-31T20:32:51.373Z,10.97
2019-03-31T20:35:39.696Z,11.57
2019-03-31T20:38:17.996Z,12.50
2019-03-31T20:41:06.238Z,11.23
2019-03-31T20:43:54.703Z,11.13
2019-03-31T20:46:24.558Z,12.00
2019-03-31T20:48:56.975Z,11.33
2019-03-31T20:51:26.234Z,12.30
2019-03-31T20:54:35.867Z,11.43
2019-03-31T20:57:05.078Z,11.23
2019-03-31T20:59:34.515Z,11.30
2019-03-31T21:02:03.806Z,11.60
2019-03-31T21:04:33.017Z,11.77
2019-03-31T21:07:02.690Z,11.60
2019-03-31T21:09:44.228Z,12.53
2019-03-31T21:12:02.949Z,12.70
2019-03-31T21:14:32.162Z,11.80
2019-03-31T21:17:01.448Z,12.47
2019-03-31T21:19:31.004Z,12.20
2019-03-31T21:22:00.290Z,12.77
2019-03-31T21:24:29.482Z,11.77
2019-03-31T21:26:59.128Z,13.00
2019-03-31T21:29:28.341Z,13.03
2019-03-31T21:31:57.632Z,12.40
2019-03-31T21:34:27.192Z,12.07
2019-03-31T21:36:56.478Z,12.50
2019-03-31T21:39:25.683Z,12.40
2019-03-31T21:41:54.994Z,12.13
2019-03-31T21:44:24.285Z,12.83
2019-03-31T21:46:55.986Z,11.80
2019-03-31T21:49:24.833Z,12.37
2019-03-31T21:51:54.122Z,11.63
2019-03-31T21:54:23.341Z,11.87
2019-03-31T21:56:52.639Z,12.57
2019-03-31T21:59:21.859Z,12.00
2019-03-31T22:01:51.581Z,10.93
2019-03-31T22:04:20.800Z,10.80
2019-03-31T22:06:50.088Z,11.80
2019-03-31T22:09:19.331Z,11.23
2019-03-31T22:11:48.651Z,10.57
2019-03-31T22:14:17.926Z,11.27
2019-03-31T22:16:47.270Z,10.70
2019-03-31T22:19:16.843Z,11.60
2019-03-31T22:21:46.157Z,10.97
2019-03-31T22:24:54.731Z,10.13
2019-03-31T22:27:43.083Z,11.37
2019-03-31T22:30:24.505Z,11.10
2019-03-31T22:32:43.994Z,11.83
2019-03-31T22:35:13.228Z,11.97
2019-03-31T22:37:42.620Z,12.13
2019-03-31T22:40:11.963Z,11.47
2019-03-31T22:42:41.703Z,11.87
2019-03-31T22:45:11.225Z,11.67
2019-03-31T22:47:40.527Z,11.53
2019-03-31T22:50:09.735Z,11.87
2019-03-31T22:52:39.019Z,12.63
2019-03-31T22:55:08.293Z,11.47
2019-03-31T22:57:37.536Z,12.30
2019-03-31T23:00:27.402Z,11.53
2019-03-31T23:02:56.794Z,11.80
2019-03-31T23:05:26.022Z,12.23
2019-03-31T23:07:55.316Z,12.93
2019-03-31T23:10:24.675Z,12.90
2019-03-31T23:12:53.963Z,12.97
2019-03-31T23:15:23.207Z,13.13
2019-03-31T23:17:52.815Z,13.97
2019-03-31T23:20:22.087Z,14.20
2019-03-31T23:22:51.650Z,14.00
2019-03-31T23:25:20.925Z,13.73
2019-03-31T23:27:50.136Z,13.60
2019-03-31T23:30:19.425Z,14.30
2019-03-31T23:32:49.046Z,14.40
2019-03-31T23:35:18.442Z,15.23
2019-03-31T23:37:47.752Z,14.83
2019-03-31T23:40:17.049Z,14.70
2019-03-31T23:42:46.253Z,14.70
2019-03-31T23:45:34.872Z,15.03
2019-03-31T23:48:04.092Z,15.23
2019-03-31T23:50:33.373Z,14.90
2019-03-31T23:53:03.039Z,14.73
2019-03-31T23:55:32.343Z,14.43
2019-03-31T23:58:01.573Z,14.80
